Aérodrome :
LOGIN :

S'inscrire | Disclaimer

   EN    FR    IT 

 










Légende :    VFR   VFR Marginal   IFR   IFR Intensif   IFR Très Intensif
Visi : 
Plafond : 
>= 8 km
>= 3000ft
5 à 8 km
1000 à 3000 ft
1500m à 5 km
500 à 1000 ft
800 à 1500m
200 à 500 ft
< 800m
< 200 ft
Symboles :   Orages  Brouillard  Fortes neiges  Fortes précipitations  Vent > 20 kt
SIGMETs :   Divers  Orages  Givrage  Turbulence  Onde Orograph.  Cendres Volcan.






- Altitude de l'aérodrome : 239 ft
- Code IATA : VRN


LIPX - Villafranca Int. Verona

DERNIER METAR :
  • 200720Z 13003KT 080V180 CAVOK 21/10 Q1027

METARs EXPIRÉS :
  • 200650Z 14003KT 110V190 CAVOK 21/10 Q1026
  • 200620Z 14003KT 110V200 CAVOK 20/10 Q1026
  • 200550Z VRB01KT CAVOK 20/10 Q1026
  • 200520Z VRB01KT CAVOK 18/11 Q1026
  • 200450Z 02002KT CAVOK 16/10 Q1026

TAF TAF LIPX
Valide du 20 à 06h jusqu'au 21 à 06h UTC


200500Z 2006/2106 VRB05KT CAVOK
BECMG 2010/2012 25010KT
BECMG 2018/2020 VRB05KT



MET'MAP, la Météo Aéronautique d'un coup d'oeil ! - Copyright ORBIFLY Décembre 2007 - Disclaimer

ORBIFLY MET'MAP TEAM :

Programmation & Développement : Alexandra Zaïnal
Sur une idée originale de : Baudouin d'Aumeries
Soutien technique & logistique : Manuel Goepfert
Assistance : Marc-Olivier Méhu

Contact : metmap@orbifly.com




SOURCES & CREDITS :

   NOAA